createdAt,value
2016-12-24T00:00:32.783Z,0
2016-12-24T00:01:13.301Z,0
2016-12-24T00:01:53.819Z,0
2016-12-24T00:02:34.349Z,0
2016-12-24T00:03:14.899Z,0
2016-12-24T00:03:55.420Z,0
2016-12-24T00:04:35.950Z,0
2016-12-24T00:05:16.488Z,0
2016-12-24T00:05:57.013Z,0
2016-12-24T00:06:37.551Z,0
2016-12-24T00:07:18.080Z,0
2016-12-24T00:07:58.600Z,0
2016-12-24T00:08:39.125Z,0
2016-12-24T00:09:19.663Z,0
2016-12-24T00:10:00.175Z,0
2016-12-24T00:10:40.706Z,0
2016-12-24T00:11:21.249Z,0
2016-12-24T00:12:01.763Z,0
2016-12-24T00:12:42.298Z,0
2016-12-24T00:13:22.826Z,0
2016-12-24T00:14:03.365Z,0
2016-12-24T00:14:43.888Z,0
2016-12-24T00:15:24.414Z,0
2016-12-24T00:16:04.946Z,0
2016-12-24T00:16:45.464Z,0
2016-12-24T00:17:25.991Z,0
2016-12-24T00:18:06.516Z,0
2016-12-24T00:18:47.045Z,0
2016-12-24T00:19:27.572Z,0
2016-12-24T00:20:08.090Z,0
2016-12-24T00:20:48.623Z,0
2016-12-24T00:21:29.188Z,0
2016-12-24T00:22:09.720Z,0
2016-12-24T00:22:50.243Z,0
2016-12-24T00:23:30.788Z,0
2016-12-24T00:24:11.322Z,0
2016-12-24T00:24:51.854Z,0
2016-12-24T00:25:32.387Z,0
2016-12-24T00:26:13.028Z,0
2016-12-24T00:26:53.561Z,0
2016-12-24T00:27:34.099Z,0
2016-12-24T00:28:14.618Z,0
2016-12-24T00:28:55.143Z,0
2016-12-24T00:29:35.692Z,0
2016-12-24T00:30:16.218Z,0
2016-12-24T00:30:56.752Z,0
2016-12-24T00:31:37.266Z,0
2016-12-24T00:32:17.800Z,0
2016-12-24T00:32:58.337Z,0
2016-12-24T00:33:38.847Z,0
2016-12-24T00:34:19.370Z,0
2016-12-24T00:34:59.893Z,0
2016-12-24T00:35:40.422Z,0
2016-12-24T00:36:20.944Z,0
2016-12-24T00:37:01.466Z,0
2016-12-24T00:37:41.998Z,0
2016-12-24T00:38:22.531Z,0
2016-12-24T00:39:03.043Z,0
2016-12-24T00:39:43.557Z,0
2016-12-24T00:40:24.088Z,0
2016-12-24T00:41:04.636Z,0
2016-12-24T00:41:45.166Z,0
2016-12-24T00:42:25.672Z,0
2016-12-24T00:43:06.197Z,0
2016-12-24T00:43:46.720Z,0
2016-12-24T00:44:27.242Z,0
2016-12-24T00:45:07.771Z,0
2016-12-24T00:45:48.311Z,0
2016-12-24T00:46:28.832Z,0
2016-12-24T00:47:09.359Z,0
2016-12-24T00:47:49.890Z,0
2016-12-24T00:48:30.425Z,0
2016-12-24T00:49:10.945Z,0
2016-12-24T00:49:51.492Z,0
2016-12-24T00:50:32.017Z,0
2016-12-24T00:51:12.541Z,0
2016-12-24T00:51:53.072Z,0
2016-12-24T00:52:33.589Z,0
2016-12-24T00:53:14.115Z,0
2016-12-24T00:53:54.655Z,0
2016-12-24T00:54:35.165Z,0
2016-12-24T00:55:15.745Z,0
2016-12-24T00:55:56.271Z,0
2016-12-24T00:56:36.796Z,0
2016-12-24T00:57:17.324Z,0
2016-12-24T00:57:57.856Z,0
2016-12-24T00:58:38.397Z,0
2016-12-24T00:59:18.920Z,0
2016-12-24T00:59:59.444Z,0
2016-12-24T01:00:39.963Z,0
2016-12-24T01:01:20.486Z,0
2016-12-24T01:02:01.008Z,0
2016-12-24T01:02:41.555Z,0
2016-12-24T01:03:22.083Z,0
2016-12-24T01:04:02.634Z,0
2016-12-24T01:04:43.162Z,0
2016-12-24T01:07:01.046Z,0
2016-12-24T01:07:41.566Z,0
2016-12-24T01:08:22.095Z,0
2016-12-24T01:09:02.614Z,0
2016-12-24T01:09:43.147Z,0
2016-12-24T01:10:23.657Z,0
2016-12-24T01:11:04.187Z,0
2016-12-24T01:11:44.722Z,0
2016-12-24T01:12:25.247Z,0
2016-12-24T01:13:05.768Z,0
2016-12-24T01:13:46.303Z,0
2016-12-24T01:14:26.836Z,0
2016-12-24T01:15:07.368Z,0
2016-12-24T01:15:47.896Z,0
2016-12-24T01:16:28.425Z,0
2016-12-24T01:17:08.951Z,0
2016-12-24T01:17:49.477Z,0
2016-12-24T01:18:29.993Z,0
2016-12-24T01:19:10.513Z,0
2016-12-24T01:19:51.035Z,0
2016-12-24T01:20:31.558Z,0
2016-12-24T01:21:12.076Z,0
2016-12-24T01:21:52.592Z,0
2016-12-24T01:22:33.123Z,0
2016-12-24T01:23:13.659Z,0
2016-12-24T01:23:54.169Z,0
2016-12-24T01:24:34.695Z,0
2016-12-24T01:25:15.224Z,0
2016-12-24T01:25:55.757Z,0
2016-12-24T01:26:36.287Z,0
2016-12-24T01:27:16.812Z,0
2016-12-24T01:27:57.327Z,0
2016-12-24T01:28:37.860Z,0
2016-12-24T01:29:18.396Z,0
2016-12-24T01:29:58.924Z,0
2016-12-24T01:30:39.442Z,0
2016-12-24T01:31:19.974Z,0
2016-12-24T01:32:00.518Z,0
2016-12-24T01:32:41.048Z,0
2016-12-24T01:33:21.571Z,0
2016-12-24T01:34:02.085Z,0
2016-12-24T01:34:42.612Z,0
2016-12-24T01:35:23.144Z,0
2016-12-24T01:36:03.676Z,0
2016-12-24T01:36:44.189Z,0
2016-12-24T01:37:24.704Z,0
2016-12-24T01:38:05.214Z,0
2016-12-24T01:38:45.760Z,0
2016-12-24T01:39:26.286Z,0
2016-12-24T01:40:06.810Z,0
2016-12-24T01:40:47.322Z,0
2016-12-24T01:41:27.858Z,0
2016-12-24T01:42:08.386Z,0
2016-12-24T01:42:48.904Z,0
2016-12-24T01:43:29.442Z,0
2016-12-24T01:44:09.973Z,0
2016-12-24T01:44:50.491Z,0
2016-12-24T01:45:31.019Z,0
2016-12-24T01:46:11.551Z,0
2016-12-24T01:46:52.090Z,0
2016-12-24T01:47:32.618Z,0
2016-12-24T01:48:13.147Z,0
2016-12-24T01:48:53.668Z,0
2016-12-24T01:49:34.209Z,0
2016-12-24T01:50:14.717Z,0
2016-12-24T01:50:55.254Z,0
2016-12-24T01:51:35.780Z,0
2016-12-24T01:52:16.325Z,0
2016-12-24T01:52:56.852Z,0
2016-12-24T01:53:37.385Z,0
2016-12-24T01:54:17.918Z,0
2016-12-24T01:54:58.437Z,0
2016-12-24T01:55:38.980Z,0
2016-12-24T01:56:19.522Z,0
2016-12-24T01:57:00.044Z,0
2016-12-24T01:57:40.570Z,0
2016-12-24T01:58:21.091Z,0
2016-12-24T01:59:01.617Z,0
2016-12-24T01:59:42.134Z,0
2016-12-24T02:00:22.648Z,0
2016-12-24T02:01:03.183Z,0
2016-12-24T02:01:43.712Z,0
2016-12-24T02:02:24.246Z,0
2016-12-24T02:03:04.790Z,0
2016-12-24T02:03:45.301Z,0
2016-12-24T02:04:25.826Z,0
2016-12-24T02:05:06.373Z,0
2016-12-24T02:05:46.927Z,0
2016-12-24T02:06:27.469Z,0
2016-12-24T02:07:07.981Z,0
2016-12-24T02:07:48.513Z,0
2016-12-24T02:08:29.045Z,0
2016-12-24T02:09:09.574Z,0
2016-12-24T02:09:50.109Z,0
2016-12-24T02:10:30.640Z,0
2016-12-24T02:11:11.165Z,0
2016-12-24T02:11:51.702Z,0
2016-12-24T02:12:32.224Z,0
2016-12-24T02:13:12.758Z,0
2016-12-24T02:13:53.292Z,0
2016-12-24T02:14:33.821Z,0
2016-12-24T02:15:14.368Z,0
2016-12-24T02:15:54.881Z,0
2016-12-24T02:16:35.401Z,0
2016-12-24T02:17:15.947Z,0
2016-12-24T02:17:56.488Z,0
2016-12-24T02:18:37.026Z,0
2016-12-24T02:19:17.561Z,0
2016-12-24T02:19:58.103Z,0
2016-12-24T02:20:38.622Z,0
2016-12-24T02:21:19.155Z,0
2016-12-24T02:21:59.680Z,0
2016-12-24T02:22:40.203Z,0
2016-12-24T02:23:20.728Z,0
2016-12-24T02:24:01.259Z,0
2016-12-24T02:24:41.795Z,0
2016-12-24T02:25:22.316Z,0
2016-12-24T02:26:02.816Z,0
2016-12-24T02:26:43.344Z,0
2016-12-24T02:27:23.876Z,0
2016-12-24T02:28:04.400Z,0
2016-12-24T02:28:44.919Z,0
2016-12-24T02:29:25.445Z,0
2016-12-24T02:30:05.976Z,0
2016-12-24T02:30:46.499Z,0
2016-12-24T02:31:27.022Z,0
2016-12-24T02:32:07.573Z,0
2016-12-24T02:32:54.847Z,0
2016-12-24T02:33:35.370Z,0
2016-12-24T02:34:15.889Z,0
2016-12-24T02:34:56.430Z,0
2016-12-24T02:35:36.953Z,0
2016-12-24T02:36:17.497Z,0
2016-12-24T02:36:58.031Z,0
2016-12-24T02:37:38.562Z,0
2016-12-24T02:38:19.106Z,0
2016-12-24T02:38:59.652Z,0
2016-12-24T02:39:40.178Z,0
2016-12-24T02:40:20.717Z,0
2016-12-24T02:41:01.249Z,0
2016-12-24T02:41:41.786Z,0
2016-12-24T02:42:22.313Z,0
2016-12-24T02:43:02.843Z,0
2016-12-24T02:43:43.383Z,0
2016-12-24T02:44:23.922Z,0
2016-12-24T02:45:04.449Z,0
2016-12-24T02:45:44.991Z,0
2016-12-24T02:46:25.513Z,0
2016-12-24T02:47:06.038Z,0
2016-12-24T02:47:46.569Z,0
2016-12-24T02:48:27.097Z,0
2016-12-24T02:49:07.625Z,0
2016-12-24T02:49:48.161Z,0
2016-12-24T02:50:28.693Z,0
2016-12-24T02:51:09.228Z,0
2016-12-24T02:51:49.759Z,0
2016-12-24T02:52:30.301Z,0
2016-12-24T02:53:10.827Z,0
2016-12-24T02:53:51.354Z,0
2016-12-24T02:54:31.885Z,0
2016-12-24T02:55:12.414Z,0
2016-12-24T02:55:52.945Z,0
2016-12-24T02:56:33.472Z,0
2016-12-24T02:57:14.016Z,0
2016-12-24T02:57:54.531Z,0
2016-12-24T02:58:35.064Z,0
2016-12-24T02:59:15.596Z,0
2016-12-24T02:59:56.123Z,0
2016-12-24T03:00:36.651Z,0
2016-12-24T03:01:17.214Z,0
2016-12-24T03:01:57.709Z,0
2016-12-24T03:02:38.244Z,0
2016-12-24T03:03:18.774Z,0
2016-12-24T03:03:59.309Z,0
2016-12-24T03:04:39.835Z,0
2016-12-24T03:05:20.360Z,0
2016-12-24T03:06:00.893Z,0
2016-12-24T03:06:41.409Z,0
2016-12-24T03:07:21.947Z,0
2016-12-24T03:08:02.486Z,0
2016-12-24T03:08:43.009Z,0
2016-12-24T03:09:23.547Z,0
2016-12-24T03:10:04.054Z,0
2016-12-24T03:10:44.582Z,0
2016-12-24T03:11:25.116Z,0
2016-12-24T03:12:05.671Z,0
2016-12-24T03:12:46.198Z,0
2016-12-24T03:13:26.742Z,0
2016-12-24T03:14:07.271Z,0
2016-12-24T03:14:47.800Z,0
2016-12-24T03:15:28.331Z,0
2016-12-24T03:16:08.843Z,0
2016-12-24T03:16:49.369Z,0
2016-12-24T03:17:29.906Z,0
2016-12-24T03:18:10.439Z,0
2016-12-24T03:18:50.969Z,0
2016-12-24T03:19:31.494Z,0
2016-12-24T03:20:12.029Z,0
2016-12-24T03:20:52.570Z,0
2016-12-24T03:21:33.086Z,0
2016-12-24T03:22:13.615Z,0
2016-12-24T03:22:54.141Z,0
2016-12-24T03:23:34.667Z,0
2016-12-24T03:24:15.199Z,0
2016-12-24T03:24:55.734Z,0
2016-12-24T03:25:36.268Z,0
2016-12-24T03:26:16.814Z,0
2016-12-24T03:26:57.342Z,0
2016-12-24T03:27:37.877Z,0
2016-12-24T03:28:18.414Z,0
2016-12-24T03:28:58.953Z,0
2016-12-24T03:29:39.482Z,0
2016-12-24T03:30:20.009Z,0
2016-12-24T03:31:00.543Z,0
2016-12-24T03:31:41.101Z,0
2016-12-24T03:32:21.625Z,0
2016-12-24T03:33:02.170Z,0
2016-12-24T03:33:42.699Z,0
2016-12-24T03:34:23.236Z,0
2016-12-24T03:35:03.766Z,0
2016-12-24T03:35:44.284Z,0
2016-12-24T03:36:24.820Z,0
2016-12-24T03:37:05.351Z,0
2016-12-24T03:37:45.883Z,0
2016-12-24T03:38:26.412Z,0
2016-12-24T03:39:06.964Z,0
2016-12-24T03:39:47.492Z,0
2016-12-24T03:40:28.023Z,0
2016-12-24T03:41:08.558Z,0
2016-12-24T03:41:49.082Z,0
2016-12-24T03:42:29.614Z,0
2016-12-24T03:43:10.134Z,0
2016-12-24T03:43:50.674Z,0
2016-12-24T03:44:31.229Z,0
2016-12-24T03:45:11.760Z,0
2016-12-24T03:45:52.301Z,0
2016-12-24T03:46:32.827Z,0
2016-12-24T03:47:13.358Z,0
2016-12-24T03:47:53.908Z,0
2016-12-24T03:48:34.439Z,0
2016-12-24T03:49:14.970Z,0
2016-12-24T03:49:55.504Z,0
2016-12-24T03:50:36.030Z,0
2016-12-24T03:51:16.564Z,0
2016-12-24T03:51:57.088Z,0
2016-12-24T03:52:37.623Z,0
2016-12-24T03:53:18.144Z,0
2016-12-24T03:53:58.731Z,0
2016-12-24T03:54:39.271Z,0
2016-12-24T03:55:19.802Z,0
2016-12-24T03:56:00.333Z,0
2016-12-24T03:56:40.868Z,0
2016-12-24T03:57:21.389Z,0
2016-12-24T03:58:01.923Z,0
2016-12-24T03:58:42.448Z,0
2016-12-24T03:59:22.985Z,0
2016-12-24T04:00:03.518Z,0
2016-12-24T04:00:44.039Z,0
2016-12-24T04:01:24.567Z,0
2016-12-24T04:02:05.101Z,0
2016-12-24T04:02:45.636Z,0
2016-12-24T04:03:26.166Z,0
2016-12-24T04:04:06.698Z,0
2016-12-24T04:04:47.228Z,0
2016-12-24T04:05:27.747Z,0
2016-12-24T04:06:08.279Z,0
2016-12-24T04:06:48.809Z,0
2016-12-24T04:07:29.339Z,0
2016-12-24T04:08:09.873Z,0
2016-12-24T04:08:50.396Z,0
2016-12-24T04:09:30.931Z,0
2016-12-24T04:10:11.467Z,0
2016-12-24T04:10:51.996Z,0
2016-12-24T04:11:32.531Z,0
2016-12-24T04:12:13.066Z,0
2016-12-24T04:12:53.597Z,0
2016-12-24T04:13:34.128Z,0
2016-12-24T04:14:14.663Z,0
2016-12-24T04:14:55.197Z,0
2016-12-24T04:15:35.730Z,0
2016-12-24T04:16:16.257Z,0
2016-12-24T04:16:56.796Z,0
2016-12-24T04:17:37.319Z,0
2016-12-24T04:18:17.857Z,0
2016-12-24T04:18:58.389Z,0
2016-12-24T04:19:38.942Z,0
2016-12-24T04:20:19.455Z,0
2016-12-24T04:20:59.971Z,0
2016-12-24T04:21:40.498Z,0
2016-12-24T04:22:21.032Z,0
2016-12-24T04:23:01.574Z,0
2016-12-24T04:23:42.149Z,0
2016-12-24T04:24:22.680Z,0
2016-12-24T04:25:03.222Z,0
2016-12-24T04:25:43.745Z,0
2016-12-24T04:26:24.283Z,0
2016-12-24T04:27:04.821Z,0
2016-12-24T04:27:45.360Z,0
2016-12-24T04:28:25.884Z,0
2016-12-24T04:29:06.428Z,0
2016-12-24T04:29:46.959Z,0
2016-12-24T04:30:27.497Z,0
2016-12-24T04:31:08.037Z,0
2016-12-24T04:31:48.570Z,0
2016-12-24T04:32:29.111Z,0
2016-12-24T04:33:09.637Z,0
2016-12-24T04:33:50.173Z,0
2016-12-24T04:34:30.694Z,0
2016-12-24T04:35:11.225Z,0
2016-12-24T04:35:51.763Z,0
2016-12-24T04:36:32.280Z,0
2016-12-24T04:37:12.815Z,0
2016-12-24T04:37:53.346Z,0
2016-12-24T04:38:33.876Z,0
2016-12-24T04:39:14.413Z,0
2016-12-24T04:39:54.948Z,0
2016-12-24T04:40:35.473Z,0
2016-12-24T04:41:16.006Z,0
2016-12-24T04:41:56.532Z,0
2016-12-24T04:42:37.062Z,0
2016-12-24T04:43:17.585Z,0
2016-12-24T04:43:58.129Z,0
2016-12-24T04:44:38.651Z,0
2016-12-24T04:45:19.189Z,0
2016-12-24T04:45:59.715Z,0
2016-12-24T04:46:40.276Z,0
2016-12-24T04:47:20.807Z,0
2016-12-24T04:48:01.334Z,0
2016-12-24T04:48:41.863Z,0
2016-12-24T04:49:22.396Z,0
2016-12-24T04:50:02.928Z,0
2016-12-24T04:50:43.459Z,0
2016-12-24T04:51:23.988Z,0
2016-12-24T04:52:04.525Z,0
2016-12-24T04:52:45.057Z,0
2016-12-24T04:53:25.597Z,0
2016-12-24T04:54:06.121Z,0
2016-12-24T04:54:46.667Z,0
2016-12-24T04:55:27.192Z,0
2016-12-24T04:56:07.724Z,0
2016-12-24T04:56:48.258Z,0
2016-12-24T04:57:28.781Z,0
2016-12-24T04:58:09.299Z,0
2016-12-24T04:58:49.851Z,0
2016-12-24T04:59:30.395Z,0
2016-12-24T05:00:10.924Z,0
2016-12-24T05:00:51.451Z,0
2016-12-24T05:01:31.995Z,0
2016-12-24T05:02:12.536Z,0
2016-12-24T05:02:53.062Z,0
2016-12-24T05:03:33.596Z,0
2016-12-24T05:04:14.126Z,0
2016-12-24T05:04:54.678Z,0
2016-12-24T05:05:35.201Z,0
2016-12-24T05:06:15.735Z,0
2016-12-24T05:06:56.263Z,0
2016-12-24T05:07:36.799Z,0
2016-12-24T05:08:17.334Z,0
2016-12-24T05:08:57.866Z,0
2016-12-24T05:09:38.395Z,0
2016-12-24T05:10:18.922Z,0
2016-12-24T05:10:59.454Z,0
2016-12-24T05:11:39.997Z,0
2016-12-24T05:12:20.525Z,0
2016-12-24T05:13:01.051Z,0
2016-12-24T05:13:41.581Z,0
2016-12-24T05:14:22.117Z,0
2016-12-24T05:15:02.653Z,0
2016-12-24T05:15:43.185Z,0
2016-12-24T05:16:23.722Z,0
2016-12-24T05:17:04.262Z,0
2016-12-24T05:17:44.790Z,0
2016-12-24T05:18:25.315Z,0
2016-12-24T05:19:05.845Z,0
2016-12-24T05:19:46.376Z,0
2016-12-24T05:20:26.913Z,0
2016-12-24T05:21:07.441Z,0
2016-12-24T05:21:47.967Z,0
2016-12-24T05:22:28.503Z,0
2016-12-24T05:23:09.036Z,0
2016-12-24T05:23:49.576Z,0
2016-12-24T05:24:30.106Z,0
2016-12-24T05:25:10.641Z,0
2016-12-24T05:25:51.166Z,0
2016-12-24T05:26:31.702Z,0
2016-12-24T05:27:12.230Z,0
2016-12-24T05:27:52.770Z,0
2016-12-24T05:28:33.314Z,0
2016-12-24T05:29:13.868Z,0
2016-12-24T05:29:54.395Z,0
2016-12-24T05:30:34.922Z,0
2016-12-24T05:31:15.444Z,0
2016-12-24T05:31:55.976Z,0
2016-12-24T05:32:36.513Z,0
2016-12-24T05:33:17.041Z,0
2016-12-24T05:33:57.591Z,0
2016-12-24T05:34:38.112Z,0
2016-12-24T05:35:18.633Z,0
2016-12-24T05:35:59.174Z,0
2016-12-24T05:36:39.705Z,0
2016-12-24T05:37:20.239Z,0
2016-12-24T05:38:00.775Z,0
2016-12-24T05:38:41.306Z,0
2016-12-24T05:39:21.830Z,0
2016-12-24T05:40:02.357Z,0
2016-12-24T05:40:42.893Z,0
2016-12-24T05:41:23.426Z,0
2016-12-24T05:42:03.964Z,0
2016-12-24T05:42:44.493Z,0
2016-12-24T05:43:25.032Z,0
2016-12-24T05:44:05.551Z,0
2016-12-24T05:44:46.082Z,0
2016-12-24T05:45:26.617Z,0
2016-12-24T05:46:07.152Z,0
2016-12-24T05:46:47.678Z,0
2016-12-24T05:47:28.209Z,0
2016-12-24T05:48:08.744Z,0
2016-12-24T05:48:49.279Z,0
2016-12-24T05:49:29.810Z,0
2016-12-24T05:50:10.346Z,0
2016-12-24T05:50:50.879Z,0
2016-12-24T05:51:31.420Z,0
2016-12-24T05:52:11.949Z,0
2016-12-24T05:52:52.491Z,0
2016-12-24T05:53:33.019Z,0
2016-12-24T05:54:13.550Z,0
2016-12-24T05:54:54.079Z,0
2016-12-24T05:55:34.617Z,0
2016-12-24T05:56:15.159Z,0
2016-12-24T05:56:55.696Z,0
2016-12-24T05:57:36.220Z,0
2016-12-24T05:58:16.749Z,0
2016-12-24T05:58:57.280Z,0
2016-12-24T05:59:37.821Z,0
2016-12-24T06:00:18.356Z,0
2016-12-24T06:00:58.896Z,0
2016-12-24T06:01:39.428Z,0
2016-12-24T06:02:19.954Z,0
2016-12-24T06:03:00.485Z,0
2016-12-24T06:03:41.022Z,0
2016-12-24T06:04:21.558Z,0
2016-12-24T06:05:02.096Z,0
2016-12-24T06:05:42.627Z,0
2016-12-24T06:06:23.163Z,0
2016-12-24T06:07:03.684Z,0
2016-12-24T06:07:44.207Z,0
2016-12-24T06:08:24.743Z,0
2016-12-24T06:09:05.270Z,0
2016-12-24T06:09:45.808Z,0
2016-12-24T06:10:26.366Z,0
2016-12-24T06:11:06.879Z,0
2016-12-24T06:11:47.417Z,0
2016-12-24T06:12:27.950Z,0
2016-12-24T06:13:08.491Z,0
2016-12-24T06:13:49.030Z,0
2016-12-24T06:14:29.559Z,0
2016-12-24T06:15:10.104Z,0
2016-12-24T06:15:50.630Z,0
2016-12-24T06:16:31.159Z,0
2016-12-24T06:17:11.706Z,0
2016-12-24T06:17:52.240Z,0
2016-12-24T06:18:32.781Z,0
2016-12-24T06:19:13.308Z,0
2016-12-24T06:19:53.858Z,0
2016-12-24T06:20:34.395Z,0
2016-12-24T06:21:14.931Z,0
2016-12-24T06:21:55.473Z,0
2016-12-24T06:22:36.010Z,0
2016-12-24T06:23:16.536Z,0
2016-12-24T06:23:57.068Z,0
2016-12-24T06:24:37.616Z,0
2016-12-24T06:25:18.147Z,0
2016-12-24T06:25:58.680Z,0
2016-12-24T06:26:39.210Z,0
2016-12-24T06:27:19.736Z,0
2016-12-24T06:28:00.271Z,0
2016-12-24T06:28:40.801Z,0
2016-12-24T06:29:21.326Z,0
2016-12-24T06:30:01.859Z,0
2016-12-24T06:30:42.395Z,0
2016-12-24T06:31:22.995Z,0
2016-12-24T06:32:03.486Z,0
2016-12-24T06:32:44.009Z,0
2016-12-24T06:33:24.537Z,0
2016-12-24T06:34:05.081Z,0
2016-12-24T06:34:45.612Z,0
2016-12-24T06:35:26.145Z,0
2016-12-24T06:36:06.692Z,0
2016-12-24T06:36:47.248Z,0
2016-12-24T06:37:27.908Z,0
2016-12-24T06:38:08.447Z,0
2016-12-24T06:38:48.979Z,0
2016-12-24T06:39:29.556Z,0
2016-12-24T06:40:10.088Z,0
2016-12-24T06:40:50.624Z,0
2016-12-24T06:41:31.154Z,0
2016-12-24T06:42:11.680Z,0
2016-12-24T06:42:52.205Z,0
2016-12-24T06:43:32.752Z,0
2016-12-24T06:44:13.377Z,0
2016-12-24T06:44:53.917Z,0
2016-12-24T06:45:34.451Z,0
2016-12-24T06:46:15.027Z,0
2016-12-24T06:46:55.553Z,0
2016-12-24T06:47:36.083Z,0
2016-12-24T06:48:16.606Z,0
2016-12-24T06:48:57.160Z,0
2016-12-24T06:49:37.694Z,0
2016-12-24T06:50:18.224Z,0
2016-12-24T06:50:58.776Z,0
2016-12-24T06:51:39.308Z,0
2016-12-24T06:52:19.828Z,0
2016-12-24T06:53:00.419Z,0
2016-12-24T06:53:40.959Z,0
2016-12-24T06:54:21.491Z,0
2016-12-24T06:55:02.021Z,0
2016-12-24T06:55:42.557Z,0
2016-12-24T06:56:23.079Z,0
2016-12-24T06:57:03.618Z,0
2016-12-24T06:57:44.144Z,0
2016-12-24T06:58:24.705Z,0
2016-12-24T06:59:05.216Z,0
2016-12-24T06:59:45.748Z,0
2016-12-24T07:00:26.269Z,0
2016-12-24T07:01:06.803Z,0
2016-12-24T07:01:47.340Z,0
2016-12-24T07:02:27.860Z,0
2016-12-24T07:03:08.399Z,0
2016-12-24T07:03:48.939Z,0
2016-12-24T07:04:29.468Z,0
2016-12-24T07:05:10.006Z,0
2016-12-24T07:05:50.588Z,0
2016-12-24T07:06:31.109Z,0
2016-12-24T07:07:11.638Z,0
2016-12-24T07:07:52.172Z,0
2016-12-24T07:08:32.708Z,0
2016-12-24T07:09:13.245Z,0
2016-12-24T07:09:53.785Z,0
2016-12-24T07:10:34.318Z,0
2016-12-24T07:11:14.853Z,0
2016-12-24T07:11:55.386Z,0
2016-12-24T07:12:35.928Z,0
2016-12-24T07:13:16.470Z,0
2016-12-24T07:13:57.003Z,0
2016-12-24T07:14:37.538Z,0
2016-12-24T07:15:18.070Z,0
2016-12-24T07:15:58.605Z,0
2016-12-24T07:16:39.134Z,0
2016-12-24T07:17:19.775Z,0
2016-12-24T07:18:00.321Z,0
2016-12-24T07:18:40.852Z,0
2016-12-24T07:19:21.379Z,0
2016-12-24T07:20:01.921Z,0
2016-12-24T07:20:42.450Z,0
2016-12-24T07:21:22.989Z,0
2016-12-24T07:22:03.523Z,0
2016-12-24T07:22:44.048Z,0
2016-12-24T07:23:24.589Z,0
2016-12-24T07:24:05.114Z,0
2016-12-24T07:24:45.647Z,0
2016-12-24T07:25:26.187Z,0
2016-12-24T07:26:06.718Z,0
2016-12-24T07:26:47.248Z,0
2016-12-24T07:27:27.779Z,0
2016-12-24T07:28:08.299Z,0
2016-12-24T07:28:48.825Z,0
2016-12-24T07:29:29.399Z,0
2016-12-24T07:30:09.904Z,0
2016-12-24T07:30:50.439Z,0
2016-12-24T07:31:30.982Z,0
2016-12-24T07:32:11.520Z,0
2016-12-24T07:32:52.047Z,0
2016-12-24T07:33:32.572Z,0
2016-12-24T07:34:13.097Z,0
2016-12-24T07:34:53.638Z,0
2016-12-24T07:35:34.166Z,0
2016-12-24T07:36:14.700Z,0
2016-12-24T07:36:55.261Z,0
2016-12-24T07:37:35.767Z,0
2016-12-24T07:38:16.298Z,0
2016-12-24T07:38:56.822Z,0
2016-12-24T07:39:37.349Z,0
2016-12-24T07:40:17.886Z,0
2016-12-24T07:40:58.413Z,0
2016-12-24T07:41:38.951Z,0
2016-12-24T07:42:19.496Z,0
2016-12-24T07:43:00.033Z,0
2016-12-24T07:43:40.561Z,0
2016-12-24T07:44:21.099Z,0
2016-12-24T07:45:01.632Z,0
2016-12-24T07:45:42.169Z,0
2016-12-24T07:46:22.698Z,0
2016-12-24T07:47:03.235Z,0
2016-12-24T07:47:43.775Z,4
2016-12-24T07:48:24.308Z,4
2016-12-24T07:49:04.840Z,4
2016-12-24T07:49:45.360Z,4
2016-12-24T07:50:25.894Z,4
2016-12-24T07:51:06.422Z,4
2016-12-24T07:51:46.952Z,4
2016-12-24T07:52:27.497Z,4
2016-12-24T07:53:08.022Z,4
2016-12-24T07:53:48.552Z,4
2016-12-24T07:54:29.072Z,4
2016-12-24T07:55:09.599Z,4
2016-12-24T07:55:50.124Z,4
2016-12-24T07:56:30.643Z,4
2016-12-24T07:57:11.176Z,4
2016-12-24T07:57:51.708Z,4
2016-12-24T07:58:32.239Z,0
2016-12-24T07:59:12.773Z,4
2016-12-24T07:59:53.298Z,4
2016-12-24T08:00:33.823Z,4
2016-12-24T08:01:14.347Z,4
2016-12-24T08:01:54.878Z,4
2016-12-24T08:02:35.412Z,4
2016-12-24T08:03:15.951Z,4
2016-12-24T08:03:56.483Z,4
2016-12-24T08:04:37.022Z,4
2016-12-24T08:05:17.548Z,4
2016-12-24T08:05:58.074Z,4
2016-12-24T08:06:38.615Z,4
2016-12-24T08:07:19.147Z,4
2016-12-24T08:07:59.682Z,4
2016-12-24T08:08:40.204Z,4
2016-12-24T08:09:20.736Z,4
2016-12-24T08:10:01.264Z,4
2016-12-24T08:10:41.801Z,4
2016-12-24T08:11:22.334Z,8
2016-12-24T08:12:02.843Z,4
2016-12-24T08:12:43.369Z,8
2016-12-24T08:13:23.899Z,12
2016-12-24T08:14:04.437Z,8
2016-12-24T08:14:44.975Z,8
2016-12-24T08:15:25.517Z,8
2016-12-24T08:16:06.052Z,12
2016-12-24T08:16:46.597Z,8
2016-12-24T08:17:27.123Z,8
2016-12-24T08:18:07.684Z,8
2016-12-24T08:18:48.220Z,8
2016-12-24T08:19:28.751Z,8
2016-12-24T08:20:09.282Z,4
2016-12-24T08:20:49.814Z,8
2016-12-24T08:21:30.356Z,8
2016-12-24T08:22:10.890Z,8
2016-12-24T08:22:51.421Z,4
2016-12-24T08:23:31.952Z,4
2016-12-24T08:24:12.483Z,8
2016-12-24T08:24:53.012Z,8
2016-12-24T08:25:33.538Z,4
2016-12-24T08:26:14.072Z,8
2016-12-24T08:26:54.600Z,8
2016-12-24T08:27:35.137Z,4
2016-12-24T08:28:15.673Z,8
2016-12-24T08:28:56.207Z,4
2016-12-24T08:29:36.737Z,8
2016-12-24T08:30:17.270Z,4
2016-12-24T08:30:57.805Z,4
2016-12-24T08:31:38.338Z,4
2016-12-24T08:32:18.868Z,8
2016-12-24T08:32:59.398Z,8
2016-12-24T08:33:39.948Z,8
2016-12-24T08:34:20.479Z,8
2016-12-24T08:35:01.013Z,8
2016-12-24T08:35:41.558Z,8
2016-12-24T08:36:22.087Z,8
2016-12-24T08:37:02.630Z,8
2016-12-24T08:37:43.180Z,8
2016-12-24T08:38:23.716Z,4
2016-12-24T08:39:04.249Z,12
2016-12-24T08:39:44.779Z,12
2016-12-24T08:40:25.309Z,12
2016-12-24T08:41:05.835Z,12
2016-12-24T08:41:46.373Z,12
2016-12-24T08:42:26.896Z,16
2016-12-24T08:43:07.426Z,12
2016-12-24T08:43:47.952Z,12
2016-12-24T08:44:28.485Z,12
2016-12-24T08:45:09.024Z,12
2016-12-24T08:45:49.558Z,12
2016-12-24T08:46:30.098Z,12
2016-12-24T08:47:10.622Z,16
2016-12-24T08:47:51.156Z,16
2016-12-24T08:48:31.691Z,16
2016-12-24T08:49:12.224Z,16
2016-12-24T08:49:52.751Z,16
2016-12-24T08:50:33.289Z,16
2016-12-24T08:51:13.848Z,16
2016-12-24T08:51:54.371Z,16
2016-12-24T08:52:34.906Z,16
2016-12-24T08:53:15.438Z,16
2016-12-24T08:53:55.967Z,16
2016-12-24T08:54:36.500Z,16
2016-12-24T08:55:17.031Z,16
2016-12-24T08:55:57.564Z,12
2016-12-24T08:56:38.105Z,12
2016-12-24T08:57:18.628Z,16
2016-12-24T08:57:59.164Z,16
2016-12-24T08:58:39.698Z,12
2016-12-24T08:59:20.223Z,16
2016-12-24T09:00:00.772Z,12
2016-12-24T09:00:41.310Z,12
2016-12-24T09:01:21.837Z,16
2016-12-24T09:02:02.374Z,16
2016-12-24T09:02:42.899Z,16
2016-12-24T09:03:23.422Z,16
2016-12-24T09:04:03.956Z,16
2016-12-24T09:04:44.492Z,16
2016-12-24T09:05:25.035Z,20
2016-12-24T09:06:05.575Z,28
2016-12-24T09:06:46.092Z,28
2016-12-24T09:07:26.644Z,32
2016-12-24T09:08:07.193Z,28
2016-12-24T09:08:47.722Z,36
2016-12-24T09:09:28.252Z,40
2016-12-24T09:10:08.786Z,44
2016-12-24T09:10:49.317Z,48
2016-12-24T09:11:29.852Z,56
2016-12-24T09:12:10.384Z,48
2016-12-24T09:12:50.918Z,52
2016-12-24T09:13:31.451Z,96
2016-12-24T09:14:11.985Z,60
2016-12-24T09:14:52.524Z,72
2016-12-24T09:15:33.061Z,108
2016-12-24T09:16:13.596Z,156
2016-12-24T09:16:54.125Z,200
2016-12-24T09:17:34.666Z,88
2016-12-24T09:18:15.215Z,184
2016-12-24T09:18:55.741Z,112
2016-12-24T09:19:36.271Z,148
2016-12-24T09:20:16.798Z,120
2016-12-24T09:20:57.349Z,104
2016-12-24T09:21:37.876Z,100
2016-12-24T09:22:18.413Z,140
2016-12-24T09:22:58.931Z,104
2016-12-24T09:23:39.461Z,96
2016-12-24T09:24:19.997Z,88
2016-12-24T09:25:00.525Z,84
2016-12-24T09:25:41.063Z,64
2016-12-24T09:26:21.586Z,80
2016-12-24T09:27:02.126Z,68
2016-12-24T09:27:42.653Z,64
2016-12-24T09:28:23.185Z,60
2016-12-24T09:29:03.722Z,60
2016-12-24T09:29:44.239Z,68
2016-12-24T09:30:24.776Z,72
2016-12-24T09:31:05.349Z,56
2016-12-24T09:31:45.882Z,56
2016-12-24T09:32:26.424Z,60
2016-12-24T09:33:06.954Z,52
2016-12-24T09:33:47.485Z,52
2016-12-24T09:34:28.025Z,56
2016-12-24T09:35:08.558Z,48
2016-12-24T09:35:49.084Z,52
2016-12-24T09:36:29.624Z,56
2016-12-24T09:37:10.142Z,76
2016-12-24T09:37:50.665Z,88
2016-12-24T09:38:31.202Z,88
2016-12-24T09:39:11.742Z,76
2016-12-24T09:39:52.275Z,72
2016-12-24T09:40:32.824Z,76
2016-12-24T09:41:13.352Z,64
2016-12-24T09:41:53.879Z,56
2016-12-24T09:42:34.416Z,60
2016-12-24T09:43:14.961Z,72
2016-12-24T09:43:55.480Z,236
2016-12-24T09:44:36.020Z,100
2016-12-24T09:45:16.559Z,120
2016-12-24T09:45:57.085Z,144
2016-12-24T09:46:37.624Z,132
2016-12-24T09:47:18.152Z,128
2016-12-24T09:47:58.693Z,188
2016-12-24T09:48:39.224Z,160
2016-12-24T09:49:19.751Z,148
2016-12-24T09:50:00.284Z,104
2016-12-24T09:50:40.810Z,112
2016-12-24T09:51:21.337Z,100
2016-12-24T09:52:01.861Z,104
2016-12-24T09:52:42.397Z,124
2016-12-24T09:53:22.972Z,124
2016-12-24T09:54:03.499Z,124
2016-12-24T09:54:44.033Z,120
2016-12-24T09:55:24.566Z,112
2016-12-24T09:56:05.099Z,128
2016-12-24T09:56:45.626Z,112
2016-12-24T09:57:26.155Z,156